Wind From: 11-12-2017 12:03 Until: 12-12-2017 06:00 warning for: Wind Level: Orange info button

Power and phone distribution networks may be disrupted for relatively long periods., Roofs and chimneys can be damaged. , Tree branches may break. , Vehicles can be deported. , Traffic may be disrupted, particularly on secondary roads in forest areas. Limit your trips. , Limit your speed in highway driving, especially if you drive a vehicle or hitch sensitive to wind. , Do not go for walks in forests or along the coast., In town, be vigilant against possible falling objects., Do not work on roofs and do not touch any electrical line fallen on the ground., Store or secure sensitive objects to wind or likely to be damaged., Always install power generators outside buildings. 


Meteo18 Weather Cam more information Meteo18 Weather Cam


Thunder radar more information blitzortung!


Rain radar more information rain snow radar


Visit our other weather sites:

Template documentation
and downloads

And another site



Weather Underground History page Text

Daily Summary for April 16, 2017 Units:  English    Metric   Both
« Previous Day
Next Day »
Daily Weekly Monthly Yearly Custom
  High: Low: Average:
Temperature: 56.5 °F 44.1 °F 50.7 °F
Dew Point: 47.1 °F 37.6 °F 41.5 °F
Humidity: 90 % 53 % 72 %
Wind Speed: 11 mph 0 mph 2.5 mph
Wind Gust: 13 mph - -
Wind:- - WNW
Pressure: 30.3 in 30.2 in -
Precipitation: 0 in    
Historical Graphs
 
 
Tabular Data for April 16, 2017
Time Temperature Dew Point Pressure Wind Wind Speed Wind Gust Humidity Rainfall Rate (Hourly)
00:02 51.8 °F 46.2 °F 30.2 in SW 3 mph 7 mph 81 % 0 in
00:12 51.8 °F 46.2 °F 30.2 in SSW 2 mph 8 mph 81 % 0 in
00:17 51.8 °F 46.2 °F 30.2 in SW 2 mph 8 mph 81 % 0 in
00:22 51.8 °F 46.2 °F 30.2 in WSW 4 mph 8 mph 81 % 0 in
00:32 51.6 °F 46 °F 30.2 in SW 3 mph 7 mph 81 % 0 in
00:42 51.6 °F 45.7 °F 30.2 in SSW 1 mph 6 mph 80 % 0 in
00:47 51.4 °F 45.5 °F 30.2 in SSW 1 mph 4 mph 80 % 0 in
00:52 51.3 °F 45.7 °F 30.2 in SW 2 mph 4 mph 81 % 0 in
00:57 51.1 °F 45.5 °F 30.2 in Calm   3 mph 81 % 0 in
01:02 50.9 °F 45.7 °F 30.2 in SE 1 mph 3 mph 82 % 0 in
01:07 50.7 °F 45.5 °F 30.2 in West 4 mph 4 mph 82 % 0 in
01:12 50.7 °F 45.7 °F 30.2 in WSW 3 mph 5 mph 83 % 0 in
01:17 50.9 °F 45.9 °F 30.2 in West 3 mph 6 mph 83 % 0 in
01:22 51.1 °F 45.9 °F 30.2 in West 3 mph 7 mph 82 % 0 in
01:27 51.1 °F 45.9 °F 30.2 in West 4 mph 9 mph 82 % 0 in
01:32 51.1 °F 45.9 °F 30.2 in WSW 7 mph 9 mph 82 % 0 in
01:37 51.3 °F 46 °F 30.2 in West 3 mph 9 mph 82 % 0 in
01:42 51.3 °F 46 °F 30.2 in WSW 3 mph 8 mph 82 % 0 in
01:47 51.3 °F 46 °F 30.2 in West 1 mph 8 mph 82 % 0 in
01:52 51.3 °F 46 °F 30.2 in WNW 6 mph 6 mph 82 % 0 in
01:57 51.4 °F 46.2 °F 30.2 in WNW 5 mph 11 mph 82 % 0 in
02:02 51.8 °F 46.2 °F 30.2 in WNW 11 mph 11 mph 81 % 0 in
02:07 51.6 °F 46.6 °F 30.2 in West 6 mph 11 mph 83 % 0 in
02:12 51.3 °F 46.9 °F 30.2 in West 6 mph 11 mph 85 % 0 in
02:17 51.1 °F 47.1 °F 30.2 in WNW 5 mph 11 mph 86 % 0 in
02:22 50.7 °F 46.8 °F 30.2 in WNW 4 mph 8 mph 86 % 0 in
02:27 50.7 °F 46.9 °F 30.2 in West 5 mph 8 mph 87 % 0 in
02:32 50.7 °F 46.9 °F 30.2 in NW 4 mph 7 mph 87 % 0 in
02:37 50.7 °F 46.8 °F 30.2 in WNW 3 mph 8 mph 86 % 0 in
02:42 50.7 °F 46.8 °F 30.2 in WSW 5 mph 8 mph 86 % 0 in
02:47 50.7 °F 46.8 °F 30.2 in West 4 mph 10 mph 86 % 0 in
02:57 50.5 °F 46.8 °F 30.2 in WNW 3 mph 10 mph 87 % 0 in
03:02 50.4 °F 46.6 °F 30.2 in WNW 2 mph 9 mph 87 % 0 in
03:12 50.4 °F 46.9 °F 30.2 in West 1 mph 6 mph 88 % 0 in
03:17 50.4 °F 46.9 °F 30.2 in WNW 1 mph 4 mph 88 % 0 in
03:22 50.4 °F 46.6 °F 30.2 in West 3 mph 6 mph 87 % 0 in
03:32 50.4 °F 46.6 °F 30.2 in Calm   8 mph 87 % 0 in
03:37 50.4 °F 46.6 °F 30.2 in WNW 3 mph 8 mph 87 % 0 in
03:42 50.4 °F 46.6 °F 30.2 in WNW 6 mph 6 mph 87 % 0 in
03:47 50.4 °F 46.6 °F 30.2 in WNW 1 mph 6 mph 87 % 0 in
03:52 50.4 °F 46.6 °F 30.2 in NW 2 mph 6 mph 87 % 0 in
03:57 50.2 °F 46.8 °F 30.2 in NW 3 mph 6 mph 88 % 0 in
04:02 50.2 °F 46.8 °F 30.2 in NW 3 mph 6 mph 88 % 0 in
04:12 49.8 °F 46.4 °F 30.2 in WNW 1 mph 6 mph 88 % 0 in
04:17 49.8 °F 46.8 °F 30.2 in Calm   5 mph 89 % 0 in
04:22 49.6 °F 46.6 °F 30.2 in WNW 1 mph 5 mph 89 % 0 in
04:27 49.6 °F 46.8 °F 30.2 in West 2 mph 5 mph 90 % 0 in
04:32 49.5 °F 46.6 °F 30.2 in WNW 2 mph 5 mph 90 % 0 in
04:37 49.5 °F 46.6 °F 30.2 in West 1 mph 5 mph 90 % 0 in
04:42 49.5 °F 46.6 °F 30.2 in NW 2 mph 10 mph 90 % 0 in
04:47 49.3 °F 46.4 °F 30.2 in NW 5 mph 10 mph 90 % 0 in
04:52 49.3 °F 46.4 °F 30.2 in NNW 5 mph 10 mph 90 % 0 in
04:57 48.6 °F 44.2 °F 30.3 in NNW 6 mph 10 mph 85 % 0 in
05:02 48.4 °F 43.5 °F 30.2 in NNW 2 mph 9 mph 83 % 0 in
05:12 48.2 °F 43 °F 30.3 in Calm   9 mph 82 % 0 in
05:17 48.2 °F 43 °F 30.2 in North 1 mph 5 mph 82 % 0 in
05:22 48 °F 42.8 °F 30.3 in Calm   5 mph 82 % 0 in
05:27 48 °F 42.8 °F 30.3 in Calm   4 mph 82 % 0 in
05:32 47.8 °F 42.6 °F 30.3 in NW 2 mph 3 mph 82 % 0 in
05:42 47.8 °F 42.6 °F 30.2 in WNW 2 mph 3 mph 82 % 0 in
05:47 47.8 °F 43 °F 30.2 in WNW 1 mph 4 mph 83 % 0 in
05:52 47.8 °F 43.2 °F 30.2 in NNW 2 mph 4 mph 84 % 0 in
05:57 47.8 °F 43.2 °F 30.2 in WNW 1 mph 3 mph 84 % 0 in
06:02 47.7 °F 43 °F 30.2 in Calm   5 mph 84 % 0 in
06:12 47.5 °F 43.2 °F 30.2 in WNW 1 mph 5 mph 85 % 0 in
06:17 47.1 °F 43.2 °F 30.2 in Calm   3 mph 86 % 0 in
06:22 46.9 °F 43 °F 30.3 in NW 1 mph 3 mph 86 % 0 in
06:27 46.9 °F 43.3 °F 30.3 in WNW 1 mph 2 mph 87 % 0 in
06:32 46.9 °F 43.3 °F 30.3 in WNW 1 mph 2 mph 87 % 0 in
06:42 46.9 °F 43.3 °F 30.3 in WNW 1 mph 4 mph 87 % 0 in
06:47 46.8 °F 43.2 °F 30.3 in West 1 mph 3 mph 87 % 0 in
06:52 46.8 °F 43.2 °F 30.3 in WNW 1 mph 3 mph 87 % 0 in
07:02 46.6 °F 43.2 °F 30.3 in Calm   3 mph 88 % 0 in
07:12 46.6 °F 43.2 °F 30.3 in Calm   3 mph 88 % 0 in
07:17 46.6 °F 43.2 °F 30.3 in WNW 1 mph 2 mph 88 % 0 in
07:27 46.6 °F 43.2 °F 30.3 in NW 2 mph 3 mph 88 % 0 in
07:32 46.8 °F 43.2 °F 30.3 in WNW 2 mph 3 mph 87 % 0 in
07:42 46.9 °F 43 °F 30.3 in WNW 1 mph 4 mph 86 % 0 in
07:52 46.9 °F 42.6 °F 30.3 in NW 1 mph 5 mph 85 % 0 in
07:57 47.1 °F 42.8 °F 30.3 in Calm   5 mph 85 % 0 in
08:02 47.1 °F 42.6 °F 30.3 in Calm   3 mph 84 % 0 in
08:12 47.3 °F 42.4 °F 30.3 in Calm   4 mph 83 % 0 in
08:17 47.3 °F 42.4 °F 30.3 in Calm   4 mph 83 % 0 in
08:22 47.5 °F 42.3 °F 30.3 in WNW 1 mph 2 mph 82 % 0 in
08:32 47.5 °F 42.3 °F 30.3 in Calm   2 mph 82 % 0 in
08:42 47.5 °F 41.9 °F 30.3 in NW 1 mph 3 mph 81 % 0 in
08:47 47.7 °F 41.7 °F 30.3 in NW 2 mph 4 mph 80 % 0 in
08:52 47.7 °F 41.5 °F 30.3 in NW 1 mph 4 mph 79 % 0 in
08:57 47.7 °F 41.5 °F 30.3 in NNW 1 mph 4 mph 79 % 0 in
09:02 47.8 °F 41.9 °F 30.3 in WNW 1 mph 4 mph 80 % 0 in
09:12 47.8 °F 41.9 °F 30.3 in WNW 3 mph 4 mph 80 % 0 in
09:17 47.8 °F 42.3 °F 30.3 in Calm   4 mph 81 % 0 in
09:22 47.8 °F 42.3 °F 30.3 in Calm   4 mph 81 % 0 in
09:27 47.8 °F 42.3 °F 30.3 in WNW 2 mph 3 mph 81 % 0 in
09:32 47.8 °F 42.3 °F 30.3 in WNW 2 mph 4 mph 81 % 0 in
09:42 48 °F 42.4 °F 30.3 in Calm   4 mph 81 % 0 in
09:52 48 °F 42.4 °F 30.3 in NNW 1 mph 5 mph 81 % 0 in
09:57 48 °F 42.8 °F 30.3 in Calm   5 mph 82 % 0 in
10:02 48.2 °F 43 °F 30.3 in WNW 2 mph 6 mph 82 % 0 in
10:12 48.4 °F 43.2 °F 30.3 in West 2 mph 6 mph 82 % 0 in
10:17 48 °F 43.2 °F 30.3 in Calm   4 mph 83 % 0 in
10:22 48 °F 43.2 °F 30.3 in WNW 2 mph 5 mph 83 % 0 in
10:32 48 °F 43.2 °F 30.3 in WNW 1 mph 5 mph 83 % 0 in
10:42 48 °F 43.3 °F 30.3 in West 2 mph 5 mph 84 % 0 in
10:52 48.2 °F 43.5 °F 30.3 in WSW 1 mph 5 mph 84 % 0 in
10:57 48.7 °F 44.4 °F 30.3 in WNW 1 mph 4 mph 85 % 0 in
11:02 48.9 °F 44.2 °F 30.3 in NW 1 mph 4 mph 84 % 0 in
11:12 49.3 °F 44.1 °F 30.3 in WNW 4 mph 6 mph 82 % 0 in
11:17 49.5 °F 44.2 °F 30.3 in WNW 1 mph 6 mph 82 % 0 in
11:22 49.6 °F 43.3 °F 30.3 in WNW 6 mph 6 mph 79 % 0 in
11:27 49.6 °F 43 °F 30.3 in WNW 1 mph 9 mph 78 % 0 in
11:32 49.8 °F 43 °F 30.3 in WNW 4 mph 9 mph 77 % 0 in
11:37 50 °F 42.4 °F 30.3 in NNW 4 mph 9 mph 75 % 0 in
11:47 50.4 °F 41.7 °F 30.3 in WNW 1 mph 9 mph 72 % 0 in
11:52 51.1 °F 42.8 °F 30.3 in WNW 2 mph 6 mph 73 % 0 in
11:57 51.3 °F 41.4 °F 30.3 in NW 3 mph 6 mph 69 % 0 in
12:02 51.4 °F 41.5 °F 30.3 in NNW 3 mph 8 mph 69 % 0 in
12:07 51.6 °F 42.1 °F 30.3 in WNW 6 mph 10 mph 70 % 0 in
12:12 51.4 °F 41.2 °F 30.3 in WNW 7 mph 12 mph 68 % 0 in
12:17 51.3 °F 41.4 °F 30.3 in WNW 5 mph 12 mph 69 % 0 in
12:22 51.1 °F 41.2 °F 30.3 in WNW 4 mph 12 mph 69 % 0 in
12:32 51.3 °F 41 °F 30.3 in Calm   11 mph 68 % 0 in
12:42 51.6 °F 39.9 °F 30.3 in WNW 5 mph 9 mph 64 % 0 in
12:47 51.4 °F 39.7 °F 30.3 in West 2 mph 11 mph 64 % 0 in
12:52 51.4 °F 38.8 °F 30.3 in WNW 4 mph 11 mph 62 % 0 in
12:57 52.3 °F 40.5 °F 30.3 in WNW 1 mph 11 mph 64 % 0 in
13:02 52.9 °F 39.4 °F 30.3 in NW 8 mph 9 mph 60 % 0 in
13:07 52.2 °F 39.2 °F 30.3 in WNW 10 mph 12 mph 61 % 0 in
13:12 52 °F 39.7 °F 30.3 in WNW 8 mph 13 mph 63 % 0 in
13:17 53.1 °F 40.5 °F 30.3 in West 2 mph 13 mph 62 % 0 in
13:22 53.8 °F 40.6 °F 30.3 in NW 1 mph 13 mph 61 % 0 in
13:27 54.1 °F 40.1 °F 30.3 in NNE 5 mph 13 mph 59 % 0 in
13:32 53.8 °F 39.7 °F 30.3 in WNW 7 mph 11 mph 59 % 0 in
13:37 53.2 °F 37.9 °F 30.3 in WNW 6 mph 11 mph 56 % 0 in
13:42 53.1 °F 39.9 °F 30.3 in West 2 mph 11 mph 61 % 0 in
13:47 53.2 °F 39.2 °F 30.3 in WNW 6 mph 11 mph 59 % 0 in
13:52 53.1 °F 38.7 °F 30.3 in WNW 5 mph 11 mph 58 % 0 in
13:57 53.2 °F 38.8 °F 30.3 in West 5 mph 10 mph 58 % 0 in
14:02 53.2 °F 39.2 °F 30.3 in WNW 7 mph 10 mph 59 % 0 in
14:12 54.3 °F 41.2 °F 30.3 in North 4 mph 10 mph 61 % 0 in
14:17 55 °F 39.6 °F 30.3 in WNW 4 mph 10 mph 56 % 0 in
14:22 54.7 °F 38.8 °F 30.3 in NNW 4 mph 8 mph 55 % 0 in
14:27 54.1 °F 38.8 °F 30.3 in West 3 mph 8 mph 56 % 0 in
14:32 53.8 °F 39.7 °F 30.3 in NW 5 mph 9 mph 59 % 0 in
14:37 53.8 °F 39.4 °F 30.3 in WNW 1 mph 10 mph 58 % 0 in
14:42 54 °F 39.9 °F 30.3 in WNW 2 mph 10 mph 59 % 0 in
14:47 54 °F 39 °F 30.3 in Calm   10 mph 57 % 0 in
14:52 54.1 °F 38.8 °F 30.3 in North 4 mph 7 mph 56 % 0 in
14:57 54.1 °F 39.7 °F 30.3 in NW 6 mph 6 mph 58 % 0 in
15:02 54 °F 39.6 °F 30.3 in WNW 8 mph 9 mph 58 % 0 in
15:07 54 °F 39.9 °F 30.3 in West 2 mph 10 mph 59 % 0 in
15:12 54.1 °F 40.1 °F 30.3 in West 6 mph 10 mph 59 % 0 in
15:17 54.3 °F 40.3 °F 30.3 in NW 1 mph 10 mph 59 % 0 in
15:22 54.9 °F 39.9 °F 30.3 in WNW 4 mph 10 mph 57 % 0 in
15:32 54.7 °F 39.4 °F 30.3 in West 4 mph 7 mph 56 % 0 in
15:37 54.7 °F 40.3 °F 30.3 in NNE 2 mph 11 mph 58 % 0 in
15:47 55 °F 39.2 °F 30.3 in NNW 6 mph 10 mph 55 % 0 in
15:52 54.5 °F 39.2 °F 30.3 in WNW 4 mph 9 mph 56 % 0 in
15:57 54.5 °F 39.2 °F 30.3 in WNW 3 mph 9 mph 56 % 0 in
16:02 54.1 °F 39.7 °F 30.3 in North 2 mph 8 mph 58 % 0 in
16:12 54.9 °F 39.9 °F 30.3 in West 6 mph 8 mph 57 % 0 in
16:17 55.4 °F 39.9 °F 30.3 in NW 5 mph 10 mph 56 % 0 in
16:22 55.6 °F 39.7 °F 30.3 in NW 4 mph 10 mph 55 % 0 in
16:27 55.6 °F 40.6 °F 30.3 in NNW 5 mph 9 mph 57 % 0 in
16:32 55.2 °F 40.3 °F 30.3 in NNW 1 mph 10 mph 57 % 0 in
16:37 55.2 °F 39.7 °F 30.3 in WNW 6 mph 10 mph 56 % 0 in
16:42 55.8 °F 40.8 °F 30.3 in WNW 3 mph 10 mph 57 % 0 in
16:47 55.4 °F 39.9 °F 30.3 in NW 2 mph 9 mph 56 % 0 in
16:52 55 °F 39.6 °F 30.3 in NNW 6 mph 8 mph 56 % 0 in
16:57 55 °F 39.2 °F 30.3 in North 4 mph 7 mph 55 % 0 in
17:02 55 °F 40.1 °F 30.3 in NNW 6 mph 7 mph 57 % 0 in
17:07 54.9 °F 39.4 °F 30.3 in NNW 5 mph 7 mph 56 % 0 in
17:12 54.7 °F 39.7 °F 30.2 in North 8 mph 10 mph 57 % 0 in
17:17 55 °F 39.6 °F 30.2 in NW 6 mph 11 mph 56 % 0 in
17:22 55 °F 39.6 °F 30.2 in Calm   11 mph 56 % 0 in
17:27 55 °F 39.6 °F 30.2 in North 3 mph 11 mph 56 % 0 in
17:32 54.9 °F 39 °F 30.2 in WNW 4 mph 11 mph 55 % 0 in
17:37 54.7 °F 38.8 °F 30.2 in NW 2 mph 11 mph 55 % 0 in
17:42 54.7 °F 38.8 °F 30.2 in NW 2 mph 11 mph 55 % 0 in
17:47 54.7 °F 38.8 °F 30.2 in WNW 3 mph 9 mph 55 % 0 in
17:52 55.8 °F 40.8 °F 30.2 in WNW 6 mph 9 mph 57 % 0 in
17:57 56.5 °F 39.6 °F 30.2 in WNW 6 mph 8 mph 53 % 0 in
18:02 55.9 °F 39 °F 30.2 in West 5 mph 8 mph 53 % 0 in
18:12 55.2 °F 38.3 °F 30.2 in WNW 8 mph 11 mph 53 % 0 in
18:17 55 °F 39.2 °F 30.2 in NNW 1 mph 11 mph 55 % 0 in
18:22 54.9 °F 38.5 °F 30.2 in North 2 mph 10 mph 54 % 0 in
18:32 55 °F 38.7 °F 30.2 in NW 8 mph 10 mph 54 % 0 in
18:37 54.9 °F 38.1 °F 30.2 in NW 6 mph 10 mph 53 % 0 in
18:47 55 °F 38.7 °F 30.2 in NNW 4 mph 11 mph 54 % 0 in
18:52 54.9 °F 38.1 °F 30.2 in NNW 2 mph 11 mph 53 % 0 in
18:57 54.7 °F 38.3 °F 30.2 in NNW 3 mph 8 mph 54 % 0 in
19:02 54.5 °F 38.7 °F 30.2 in West 2 mph 8 mph 55 % 0 in
19:07 54.1 °F 38.8 °F 30.2 in WNW 6 mph 8 mph 56 % 0 in
19:12 54.1 °F 39.2 °F 30.2 in WNW 2 mph 9 mph 57 % 0 in
19:17 54.1 °F 39.2 °F 30.2 in WNW 1 mph 9 mph 57 % 0 in
19:22 54.1 °F 39.7 °F 30.2 in NW 1 mph 9 mph 58 % 0 in
19:27 54.1 °F 39.2 °F 30.2 in NW 2 mph 5 mph 57 % 0 in
19:32 54.1 °F 38.8 °F 30.2 in WNW 2 mph 6 mph 56 % 0 in
19:37 54.7 °F 39.7 °F 30.2 in NW 6 mph 6 mph 57 % 0 in
19:42 55.2 °F 39.7 °F 30.2 in West 2 mph 6 mph 56 % 0 in
19:47 55.6 °F 39.2 °F 30.2 in NW 2 mph 6 mph 54 % 0 in
19:52 55.8 °F 38.8 °F 30.2 in WNW 7 mph 7 mph 53 % 0 in
19:57 55.6 °F 38.7 °F 30.2 in NW 2 mph 9 mph 53 % 0 in
20:02 55 °F 38.3 °F 30.2 in WNW 1 mph 9 mph 53 % 0 in
20:07 54.7 °F 38.3 °F 30.2 in NNW 3 mph 9 mph 54 % 0 in
20:12 54.1 °F 38.3 °F 30.2 in WNW 2 mph 8 mph 55 % 0 in
20:17 53.8 °F 38.5 °F 30.2 in WNW 2 mph 7 mph 56 % 0 in
20:22 53.2 °F 38.5 °F 30.2 in WNW 3 mph 4 mph 57 % 0 in
20:27 52.9 °F 38.5 °F 30.2 in WNW 3 mph 4 mph 58 % 0 in
20:32 52.3 °F 38.5 °F 30.2 in WNW 1 mph 4 mph 59 % 0 in
20:37 52.2 °F 38.7 °F 30.2 in WSW 2 mph 4 mph 60 % 0 in
20:42 52 °F 39 °F 30.2 in WNW 4 mph 4 mph 61 % 0 in
20:47 51.4 °F 38.5 °F 30.3 in WNW 3 mph 4 mph 61 % 0 in
20:52 51.1 °F 38.5 °F 30.3 in WNW 3 mph 4 mph 62 % 0 in
20:57 50.7 °F 38.7 °F 30.3 in WNW 1 mph 4 mph 63 % 0 in
21:02 50.5 °F 38.8 °F 30.3 in WNW 2 mph 4 mph 64 % 0 in
21:07 50.4 °F 38.7 °F 30.3 in WNW 1 mph 3 mph 64 % 0 in
21:12 50.4 °F 38.7 °F 30.3 in Calm   3 mph 64 % 0 in
21:17 50.2 °F 38.8 °F 30.3 in WNW 1 mph 3 mph 65 % 0 in
21:22 49.6 °F 38.7 °F 30.3 in Calm   2 mph 66 % 0 in
21:27 49.1 °F 39 °F 30.3 in Calm   1 mph 68 % 0 in
21:32 48.2 °F 38.8 °F 30.3 in Calm   1 mph 70 % 0 in
21:42 46.8 °F 38.8 °F 30.3 in Calm   1 mph 74 % 0 in
21:47 46.6 °F 38.7 °F 30.3 in Calm     74 % 0 in
21:52 46.6 °F 38.5 °F 30.3 in Calm     73 % 0 in
21:57 46.6 °F 38.5 °F 30.3 in Calm     73 % 0 in
22:02 46.8 °F 38.5 °F 30.3 in Calm   1 mph 73 % 0 in
22:07 46.6 °F 38.5 °F 30.3 in Calm   1 mph 73 % 0 in
22:12 46 °F 38.3 °F 30.3 in Calm   1 mph 74 % 0 in
22:17 45.5 °F 38.1 °F 30.3 in Calm   1 mph 75 % 0 in
22:22 45 °F 38.1 °F 30.3 in Calm   1 mph 77 % 0 in
22:32 44.4 °F 37.9 °F 30.3 in Calm   1 mph 78 % 0 in
22:37 44.6 °F 38.1 °F 30.3 in Calm   1 mph 78 % 0 in
22:42 44.8 °F 37.9 °F 30.3 in Calm   1 mph 77 % 0 in
22:47 44.8 °F 37.9 °F 30.3 in Calm   1 mph 77 % 0 in
22:52 44.8 °F 37.9 °F 30.3 in Calm   1 mph 77 % 0 in
22:57 44.6 °F 37.8 °F 30.3 in Calm   1 mph 77 % 0 in
23:02 44.6 °F 37.8 °F 30.3 in West 1 mph 1 mph 77 % 0 in
23:07 44.4 °F 37.6 °F 30.3 in Calm   1 mph 77 % 0 in
23:12 44.2 °F 37.8 °F 30.3 in Calm   2 mph 78 % 0 in
23:17 44.2 °F 37.8 °F 30.3 in Calm   2 mph 78 % 0 in
23:22 44.1 °F 37.9 °F 30.3 in Calm   1 mph 79 % 0 in
23:32 44.4 °F 37.9 °F 30.3 in Calm   1 mph 78 % 0 in
23:37 44.6 °F 38.1 °F 30.3 in Calm   1 mph 78 % 0 in
23:42 44.8 °F 37.9 °F 30.3 in Calm   1 mph 77 % 0 in
23:47 45 °F 38.5 °F 30.3 in Calm   1 mph 78 % 0 in
23:52 45 °F 38.5 °F 30.3 in Calm   1 mph 78 % 0 in
23:57 44.8 °F 38.7 °F 30.3 in Calm   1 mph 79 % 0 in
Meteo18
Compliments of Weather Underground - 4 mb

Script developed by  Jim McMurry - jmcmurry@mwt.net Adapted for the template by  Wim van der Kuil - Leuven-Template.eu

You find our weather info also at:

European Weather Network

Weather Underground

Equipment we use:

Weather-station
Davis Vue

Weather-program
Meteohub

Weather-server
Raspberry PI 2 B+

Provider
1 and 1

Davis Vue

Meteohub

Raspberry PI 2 B+

1 and 1